sensor_id;sensor_type;location;lat;lon;timestamp;pressure;altitude;pressure_sealevel;temperature;humidity
58662;BME280;44432;49.786;22.760;2023-08-07T00:02:20;97923.56;;;16.72;72.44
58662;BME280;44432;49.786;22.760;2023-08-07T00:04:50;97918.92;;;16.72;72.41
58662;BME280;44432;49.786;22.760;2023-08-07T00:07:21;97917.66;;;16.71;72.38
58662;BME280;44432;49.786;22.760;2023-08-07T00:09:53;97918.03;;;16.71;72.32
58662;BME280;44432;49.786;22.760;2023-08-07T00:12:24;97919.07;;;16.69;72.19
58662;BME280;44432;49.786;22.760;2023-08-07T00:14:54;97919.95;;;16.66;72.11
58662;BME280;44432;49.786;22.760;2023-08-07T00:17:25;97922.44;;;16.63;72.14
58662;BME280;44432;49.786;22.760;2023-08-07T00:19:55;97925.48;;;16.62;72.05
58662;BME280;44432;49.786;22.760;2023-08-07T00:22:26;97930.77;;;16.62;72.14
58662;BME280;44432;49.786;22.760;2023-08-07T00:24:57;97933.73;;;16.59;72.09
58662;BME280;44432;49.786;22.760;2023-08-07T00:27:27;97936.38;;;16.57;72.01
58662;BME280;44432;49.786;22.760;2023-08-07T00:29:58;97940.43;;;16.56;72.00
58662;BME280;44432;49.786;22.760;2023-08-07T00:32:28;97941.87;;;16.56;71.84
58662;BME280;44432;49.786;22.760;2023-08-07T00:34:59;97949.38;;;16.56;71.65
58662;BME280;44432;49.786;22.760;2023-08-07T00:37:29;97949.27;;;16.56;71.56
58662;BME280;44432;49.786;22.760;2023-08-07T00:40:00;97954.98;;;16.56;71.57
58662;BME280;44432;49.786;22.760;2023-08-07T00:42:31;97956.66;;;16.54;71.58
58662;BME280;44432;49.786;22.760;2023-08-07T00:45:02;97959.77;;;16.56;71.50
58662;BME280;44432;49.786;22.760;2023-08-07T00:47:32;97961.13;;;16.55;71.53
58662;BME280;44432;49.786;22.760;2023-08-07T00:50:06;97965.86;;;16.56;71.51
58662;BME280;44432;49.786;22.760;2023-08-07T00:52:38;97967.08;;;16.57;71.41
58662;BME280;44432;49.786;22.760;2023-08-07T00:55:09;97965.49;;;16.54;71.37
58662;BME280;44432;49.786;22.760;2023-08-07T00:57:39;97964.38;;;16.53;71.54
58662;BME280;44432;49.786;22.760;2023-08-07T01:00:12;97967.06;;;16.53;71.53
58662;BME280;44432;49.786;22.760;2023-08-07T01:02:43;97965.77;;;16.53;71.64
58662;BME280;44432;49.786;22.760;2023-08-07T01:05:14;97964.56;;;16.52;71.73
58662;BME280;44432;49.786;22.760;2023-08-07T01:07:46;97958.05;;;16.53;71.65
58662;BME280;44432;49.786;22.760;2023-08-07T01:10:17;97961.06;;;16.55;71.73
58662;BME280;44432;49.786;22.760;2023-08-07T01:12:52;97959.35;;;16.56;71.74
58662;BME280;44432;49.786;22.760;2023-08-07T01:15:30;97960.61;;;16.57;71.59
58662;BME280;44432;49.786;22.760;2023-08-07T01:18:03;97962.46;;;16.55;71.63
58662;BME280;44432;49.786;22.760;2023-08-07T01:20:34;97964.00;;;16.55;71.54
58662;BME280;44432;49.786;22.760;2023-08-07T01:23:05;97965.14;;;16.53;71.51
58662;BME280;44432;49.786;22.760;2023-08-07T01:25:36;97963.21;;;16.53;71.57
58662;BME280;44432;49.786;22.760;2023-08-07T01:28:17;97961.55;;;16.54;71.74
58662;BME280;44432;49.786;22.760;2023-08-07T01:30:51;97964.74;;;16.55;71.62
58662;BME280;44432;49.786;22.760;2023-08-07T01:33:30;97964.04;;;16.51;71.66
58662;BME280;44432;49.786;22.760;2023-08-07T01:36:04;97963.48;;;16.48;71.73
58662;BME280;44432;49.786;22.760;2023-08-07T01:38:36;97973.64;;;16.50;71.65
58662;BME280;44432;49.786;22.760;2023-08-07T01:41:08;97969.59;;;16.50;71.69
58662;BME280;44432;49.786;22.760;2023-08-07T01:43:39;97971.80;;;16.48;71.55
58662;BME280;44432;49.786;22.760;2023-08-07T01:46:11;97969.30;;;16.47;71.76
58662;BME280;44432;49.786;22.760;2023-08-07T01:48:42;97973.51;;;16.47;71.79
58662;BME280;44432;49.786;22.760;2023-08-07T01:51:12;97975.79;;;16.48;71.76
58662;BME280;44432;49.786;22.760;2023-08-07T01:53:43;97978.23;;;16.49;71.80
58662;BME280;44432;49.786;22.760;2023-08-07T01:56:14;97978.45;;;16.49;71.79
58662;BME280;44432;49.786;22.760;2023-08-07T01:58:45;97983.94;;;16.49;71.81
58662;BME280;44432;49.786;22.760;2023-08-07T02:01:15;97983.03;;;16.48;71.90
58662;BME280;44432;49.786;22.760;2023-08-07T02:03:46;97987.59;;;16.46;71.77
58662;BME280;44432;49.786;22.760;2023-08-07T02:06:16;97987.05;;;16.40;71.81
58662;BME280;44432;49.786;22.760;2023-08-07T02:08:47;97987.88;;;16.38;71.84
58662;BME280;44432;49.786;22.760;2023-08-07T02:11:18;97990.33;;;16.38;71.91
58662;BME280;44432;49.786;22.760;2023-08-07T02:13:49;97987.93;;;16.38;71.95
58662;BME280;44432;49.786;22.760;2023-08-07T02:16:19;97991.48;;;16.39;72.02
58662;BME280;44432;49.786;22.760;2023-08-07T02:18:50;97992.27;;;16.37;71.79
58662;BME280;44432;49.786;22.760;2023-08-07T02:21:20;97992.76;;;16.35;71.61
58662;BME280;44432;49.786;22.760;2023-08-07T02:23:51;97996.86;;;16.35;71.79
58662;BME280;44432;49.786;22.760;2023-08-07T02:26:22;98002.23;;;16.35;71.72
58662;BME280;44432;49.786;22.760;2023-08-07T02:28:52;98003.63;;;16.35;71.64
58662;BME280;44432;49.786;22.760;2023-08-07T02:31:23;98007.88;;;16.35;71.55
58662;BME280;44432;49.786;22.760;2023-08-07T02:33:54;98009.39;;;16.34;71.52
58662;BME280;44432;49.786;22.760;2023-08-07T02:36:24;98006.45;;;16.35;71.50
58662;BME280;44432;49.786;22.760;2023-08-07T02:38:55;98004.64;;;16.35;71.45
58662;BME280;44432;49.786;22.760;2023-08-07T02:41:25;98009.66;;;16.32;71.36
58662;BME280;44432;49.786;22.760;2023-08-07T02:43:56;98013.05;;;16.30;71.33
58662;BME280;44432;49.786;22.760;2023-08-07T02:46:27;98017.86;;;16.28;71.41
58662;BME280;44432;49.786;22.760;2023-08-07T02:48:57;98018.61;;;16.28;71.40
58662;BME280;44432;49.786;22.760;2023-08-07T02:51:28;98013.38;;;16.28;71.41
58662;BME280;44432;49.786;22.760;2023-08-07T02:53:58;98014.81;;;16.29;71.50
58662;BME280;44432;49.786;22.760;2023-08-07T02:56:29;98016.83;;;16.29;71.35
58662;BME280;44432;49.786;22.760;2023-08-07T02:59:00;98021.60;;;16.31;71.24
58662;BME280;44432;49.786;22.760;2023-08-07T03:01:31;98025.48;;;16.33;71.35
58662;BME280;44432;49.786;22.760;2023-08-07T03:04:01;98025.16;;;16.32;71.19
58662;BME280;44432;49.786;22.760;2023-08-07T03:06:32;98024.07;;;16.30;71.15
58662;BME280;44432;49.786;22.760;2023-08-07T03:09:02;98023.76;;;16.29;71.31
58662;BME280;44432;49.786;22.760;2023-08-07T03:11:33;98024.38;;;16.30;71.40
58662;BME280;44432;49.786;22.760;2023-08-07T03:14:04;98027.52;;;16.32;71.36
58662;BME280;44432;49.786;22.760;2023-08-07T03:16:34;98027.55;;;16.34;71.46
58662;BME280;44432;49.786;22.760;2023-08-07T03:19:05;98032.33;;;16.36;71.25
58662;BME280;44432;49.786;22.760;2023-08-07T03:21:35;98031.64;;;16.35;71.26
58662;BME280;44432;49.786;22.760;2023-08-07T03:24:06;98032.23;;;16.35;71.31
58662;BME280;44432;49.786;22.760;2023-08-07T03:26:37;98038.35;;;16.35;71.44
58662;BME280;44432;49.786;22.760;2023-08-07T03:29:08;98041.38;;;16.36;71.36
58662;BME280;44432;49.786;22.760;2023-08-07T03:31:38;98039.94;;;16.37;71.35
58662;BME280;44432;49.786;22.760;2023-08-07T03:34:09;98041.10;;;16.38;71.35
58662;BME280;44432;49.786;22.760;2023-08-07T03:36:40;98040.64;;;16.35;71.48
58662;BME280;44432;49.786;22.760;2023-08-07T03:39:10;98040.60;;;16.33;71.50
58662;BME280;44432;49.786;22.760;2023-08-07T03:41:42;98042.79;;;16.33;71.48
58662;BME280;44432;49.786;22.760;2023-08-07T03:44:13;98049.61;;;16.33;71.48
58662;BME280;44432;49.786;22.760;2023-08-07T03:46:43;98054.09;;;16.32;71.48
58662;BME280;44432;49.786;22.760;2023-08-07T03:49:15;98056.52;;;16.29;71.49
58662;BME280;44432;49.786;22.760;2023-08-07T03:51:46;98058.02;;;16.26;71.63
58662;BME280;44432;49.786;22.760;2023-08-07T03:54:17;98052.40;;;16.24;71.68
58662;BME280;44432;49.786;22.760;2023-08-07T03:56:47;98052.88;;;16.25;71.70
58662;BME280;44432;49.786;22.760;2023-08-07T03:59:19;98057.61;;;16.25;71.94
58662;BME280;44432;49.786;22.760;2023-08-07T04:01:50;98048.48;;;16.26;72.01
58662;BME280;44432;49.786;22.760;2023-08-07T04:04:20;98053.38;;;16.28;71.93
58662;BME280;44432;49.786;22.760;2023-08-07T04:06:51;98055.18;;;16.29;71.93
58662;BME280;44432;49.786;22.760;2023-08-07T04:09:22;98058.68;;;16.31;71.74
58662;BME280;44432;49.786;22.760;2023-08-07T04:11:52;98058.70;;;16.30;71.68
58662;BME280;44432;49.786;22.760;2023-08-07T04:14:23;98061.79;;;16.29;71.76
58662;BME280;44432;49.786;22.760;2023-08-07T04:16:54;98065.63;;;16.28;71.63
58662;BME280;44432;49.786;22.760;2023-08-07T04:19:24;98068.35;;;16.27;71.78
58662;BME280;44432;49.786;22.760;2023-08-07T04:21:55;98066.22;;;16.29;71.82
58662;BME280;44432;49.786;22.760;2023-08-07T04:24:26;98068.11;;;16.31;71.82
58662;BME280;44432;49.786;22.760;2023-08-07T04:26:57;98064.58;;;16.34;71.85
58662;BME280;44432;49.786;22.760;2023-08-07T04:29:27;98066.05;;;16.41;71.87
58662;BME280;44432;49.786;22.760;2023-08-07T04:31:58;98063.52;;;16.45;71.73
58662;BME280;44432;49.786;22.760;2023-08-07T04:34:29;98066.71;;;16.51;71.68
58662;BME280;44432;49.786;22.760;2023-08-07T04:37:00;98072.69;;;16.57;71.45
58662;BME280;44432;49.786;22.760;2023-08-07T04:39:30;98074.66;;;16.63;71.41
58662;BME280;44432;49.786;22.760;2023-08-07T04:42:01;98079.42;;;16.66;71.34
58662;BME280;44432;49.786;22.760;2023-08-07T04:44:32;98080.23;;;16.71;71.27
58662;BME280;44432;49.786;22.760;2023-08-07T04:47:02;98073.63;;;16.76;71.07
58662;BME280;44432;49.786;22.760;2023-08-07T04:49:33;98075.07;;;16.81;70.82
58662;BME280;44432;49.786;22.760;2023-08-07T04:52:04;98070.77;;;16.84;70.52
58662;BME280;44432;49.786;22.760;2023-08-07T04:54:34;98067.86;;;16.87;70.55
58662;BME280;44432;49.786;22.760;2023-08-07T04:57:05;98064.54;;;16.90;70.44
58662;BME280;44432;49.786;22.760;2023-08-07T04:59:36;98068.59;;;16.94;70.56
58662;BME280;44432;49.786;22.760;2023-08-07T05:02:07;98064.56;;;16.97;70.40
58662;BME280;44432;49.786;22.760;2023-08-07T05:04:38;98064.09;;;17.01;70.14
58662;BME280;44432;49.786;22.760;2023-08-07T05:07:09;98064.66;;;17.03;69.98
58662;BME280;44432;49.786;22.760;2023-08-07T05:09:40;98059.83;;;17.06;69.92
58662;BME280;44432;49.786;22.760;2023-08-07T05:12:10;98060.59;;;17.09;70.05
58662;BME280;44432;49.786;22.760;2023-08-07T05:14:41;98065.45;;;17.15;69.92
58662;BME280;44432;49.786;22.760;2023-08-07T05:17:12;98066.83;;;17.19;69.82
58662;BME280;44432;49.786;22.760;2023-08-07T05:19:43;98068.11;;;17.24;69.96
58662;BME280;44432;49.786;22.760;2023-08-07T05:22:13;98069.41;;;17.25;69.43
58662;BME280;44432;49.786;22.760;2023-08-07T05:24:44;98069.52;;;17.26;69.49
58662;BME280;44432;49.786;22.760;2023-08-07T05:27:15;98069.33;;;17.33;69.43
58662;BME280;44432;49.786;22.760;2023-08-07T05:29:45;98071.30;;;17.41;69.26
58662;BME280;44432;49.786;22.760;2023-08-07T05:32:16;98070.52;;;17.48;69.12
58662;BME280;44432;49.786;22.760;2023-08-07T05:34:47;98066.58;;;17.57;69.23
58662;BME280;44432;49.786;22.760;2023-08-07T05:37:17;98067.48;;;17.70;68.93
58662;BME280;44432;49.786;22.760;2023-08-07T05:39:48;98071.48;;;17.81;68.57
58662;BME280;44432;49.786;22.760;2023-08-07T05:42:19;98064.58;;;17.85;68.16
58662;BME280;44432;49.786;22.760;2023-08-07T05:44:49;98062.58;;;17.94;68.25
58662;BME280;44432;49.786;22.760;2023-08-07T05:47:20;98065.61;;;17.95;67.16
58662;BME280;44432;49.786;22.760;2023-08-07T05:49:50;98066.55;;;17.93;67.70
58662;BME280;44432;49.786;22.760;2023-08-07T05:52:21;98067.47;;;18.07;67.62
58662;BME280;44432;49.786;22.760;2023-08-07T05:54:52;98066.85;;;18.09;66.90
58662;BME280;44432;49.786;22.760;2023-08-07T05:57:22;98066.74;;;18.09;66.91
58662;BME280;44432;49.786;22.760;2023-08-07T05:59:53;98066.16;;;18.09;66.59
58662;BME280;44432;49.786;22.760;2023-08-07T06:02:24;98062.66;;;18.07;66.63
58662;BME280;44432;49.786;22.760;2023-08-07T06:04:55;98062.34;;;18.07;66.85
58662;BME280;44432;49.786;22.760;2023-08-07T06:07:25;98062.13;;;18.10;66.75
58662;BME280;44432;49.786;22.760;2023-08-07T06:09:56;98059.79;;;18.10;66.58
58662;BME280;44432;49.786;22.760;2023-08-07T06:12:27;98062.52;;;18.12;66.56
58662;BME280;44432;49.786;22.760;2023-08-07T06:14:58;98060.34;;;18.15;66.57
58662;BME280;44432;49.786;22.760;2023-08-07T06:17:29;98064.46;;;18.21;66.67
58662;BME280;44432;49.786;22.760;2023-08-07T06:20:00;98066.96;;;18.29;66.65
58662;BME280;44432;49.786;22.760;2023-08-07T06:22:31;98068.67;;;18.39;66.34
58662;BME280;44432;49.786;22.760;2023-08-07T06:25:02;98066.05;;;18.48;66.04
58662;BME280;44432;49.786;22.760;2023-08-07T06:27:35;98066.23;;;18.51;65.49
58662;BME280;44432;49.786;22.760;2023-08-07T06:30:07;98067.13;;;18.48;65.62
58662;BME280;44432;49.786;22.760;2023-08-07T06:32:38;98068.92;;;18.56;66.11
58662;BME280;44432;49.786;22.760;2023-08-07T06:35:09;98068.30;;;18.63;65.73
58662;BME280;44432;49.786;22.760;2023-08-07T06:37:40;98065.92;;;18.56;65.17
58662;BME280;44432;49.786;22.760;2023-08-07T06:40:12;98062.08;;;18.49;65.42
58662;BME280;44432;49.786;22.760;2023-08-07T06:42:42;98066.45;;;18.50;65.89
58662;BME280;44432;49.786;22.760;2023-08-07T06:45:13;98071.68;;;18.61;65.80
58662;BME280;44432;49.786;22.760;2023-08-07T06:47:43;98073.02;;;18.73;65.20
58662;BME280;44432;49.786;22.760;2023-08-07T06:50:14;98065.49;;;18.84;64.57
58662;BME280;44432;49.786;22.760;2023-08-07T06:52:45;98067.58;;;18.92;64.96
58662;BME280;44432;49.786;22.760;2023-08-07T06:55:16;98075.16;;;19.13;64.98
58662;BME280;44432;49.786;22.760;2023-08-07T06:57:46;98075.79;;;19.27;63.85
58662;BME280;44432;49.786;22.760;2023-08-07T07:00:18;98073.41;;;19.31;62.61
58662;BME280;44432;49.786;22.760;2023-08-07T07:02:49;98072.64;;;19.38;62.87
58662;BME280;44432;49.786;22.760;2023-08-07T07:05:19;98077.64;;;19.47;62.39
58662;BME280;44432;49.786;22.760;2023-08-07T07:07:50;98073.75;;;19.52;62.08
58662;BME280;44432;49.786;22.760;2023-08-07T07:10:21;98080.20;;;19.62;61.75
58662;BME280;44432;49.786;22.760;2023-08-07T07:12:51;98088.63;;;19.71;61.19
58662;BME280;44432;49.786;22.760;2023-08-07T07:15:22;98083.58;;;19.67;60.30
58662;BME280;44432;49.786;22.760;2023-08-07T07:17:53;98085.52;;;19.69;60.89
58662;BME280;44432;49.786;22.760;2023-08-07T07:20:23;98090.19;;;19.73;60.58
58662;BME280;44432;49.786;22.760;2023-08-07T07:22:56;98087.77;;;19.82;60.46
58662;BME280;44432;49.786;22.760;2023-08-07T07:25:26;98089.31;;;19.90;59.89
58662;BME280;44432;49.786;22.760;2023-08-07T07:27:57;98096.58;;;19.95;59.85
58662;BME280;44432;49.786;22.760;2023-08-07T07:30:27;98105.80;;;20.05;59.39
58662;BME280;44432;49.786;22.760;2023-08-07T07:32:58;98107.63;;;20.09;59.41
58662;BME280;44432;49.786;22.760;2023-08-07T07:35:29;98111.10;;;20.10;59.00
58662;BME280;44432;49.786;22.760;2023-08-07T07:38:00;98115.46;;;20.07;59.20
58662;BME280;44432;49.786;22.760;2023-08-07T07:40:30;98118.80;;;20.10;59.45
58662;BME280;44432;49.786;22.760;2023-08-07T07:43:01;98123.85;;;20.15;58.88
58662;BME280;44432;49.786;22.760;2023-08-07T07:45:32;98129.44;;;20.09;58.18
58662;BME280;44432;49.786;22.760;2023-08-07T07:48:03;98126.27;;;20.03;58.26
58662;BME280;44432;49.786;22.760;2023-08-07T07:50:35;98129.90;;;20.08;58.74
58662;BME280;44432;49.786;22.760;2023-08-07T07:53:06;98135.92;;;20.12;58.45
58662;BME280;44432;49.786;22.760;2023-08-07T07:55:37;98138.21;;;20.10;58.51
58662;BME280;44432;49.786;22.760;2023-08-07T07:58:07;98140.63;;;20.09;58.00
58662;BME280;44432;49.786;22.760;2023-08-07T08:00:38;98148.09;;;20.11;58.04
58662;BME280;44432;49.786;22.760;2023-08-07T08:03:08;98149.33;;;20.16;58.05
58662;BME280;44432;49.786;22.760;2023-08-07T08:05:39;98148.25;;;20.26;57.67
58662;BME280;44432;49.786;22.760;2023-08-07T08:08:10;98148.61;;;20.34;57.55
58662;BME280;44432;49.786;22.760;2023-08-07T08:10:41;98153.53;;;20.47;57.54
58662;BME280;44432;49.786;22.760;2023-08-07T08:13:12;98162.05;;;20.59;57.60
58662;BME280;44432;49.786;22.760;2023-08-07T08:15:43;98161.78;;;20.72;57.26
58662;BME280;44432;49.786;22.760;2023-08-07T08:18:13;98169.38;;;20.85;56.86
58662;BME280;44432;49.786;22.760;2023-08-07T08:20:44;98173.67;;;21.00;56.87
58662;BME280;44432;49.786;22.760;2023-08-07T08:23:15;98171.92;;;21.16;55.90
58662;BME280;44432;49.786;22.760;2023-08-07T08:25:45;98175.86;;;21.27;55.80
58662;BME280;44432;49.786;22.760;2023-08-07T08:28:16;98182.30;;;21.39;55.87
58662;BME280;44432;49.786;22.760;2023-08-07T08:30:47;98183.42;;;21.51;55.43
58662;BME280;44432;49.786;22.760;2023-08-07T08:33:18;98184.90;;;21.60;54.82
58662;BME280;44432;49.786;22.760;2023-08-07T08:35:48;98183.02;;;21.65;54.50
58662;BME280;44432;49.786;22.760;2023-08-07T08:38:19;98186.75;;;21.76;53.91
58662;BME280;44432;49.786;22.760;2023-08-07T08:40:52;98190.52;;;21.74;52.99
58662;BME280;44432;49.786;22.760;2023-08-07T08:43:24;98189.67;;;21.68;52.67
58662;BME280;44432;49.786;22.760;2023-08-07T08:45:56;98190.58;;;21.72;52.72
58662;BME280;44432;49.786;22.760;2023-08-07T08:48:26;98194.63;;;21.75;52.50
58662;BME280;44432;49.786;22.760;2023-08-07T08:51:00;98195.05;;;21.79;52.14
58662;BME280;44432;49.786;22.760;2023-08-07T08:53:33;98191.34;;;21.85;51.77
58662;BME280;44432;49.786;22.760;2023-08-07T08:56:04;98192.50;;;21.84;51.37
58662;BME280;44432;49.786;22.760;2023-08-07T08:58:36;98195.87;;;21.78;51.07
58662;BME280;44432;49.786;22.760;2023-08-07T09:01:08;98192.47;;;21.72;50.95
58662;BME280;44432;49.786;22.760;2023-08-07T09:03:39;98191.23;;;21.65;51.08
58662;BME280;44432;49.786;22.760;2023-08-07T09:06:10;98193.38;;;21.62;51.45
58662;BME280;44432;49.786;22.760;2023-08-07T09:08:43;98197.74;;;21.63;51.72
58662;BME280;44432;49.786;22.760;2023-08-07T09:11:14;98196.17;;;21.64;51.76
58662;BME280;44432;49.786;22.760;2023-08-07T09:13:46;98198.59;;;21.68;51.88
58662;BME280;44432;49.786;22.760;2023-08-07T09:16:18;98198.69;;;21.70;51.93
58662;BME280;44432;49.786;22.760;2023-08-07T09:18:49;98202.87;;;21.65;51.35
58662;BME280;44432;49.786;22.760;2023-08-07T09:21:20;98197.73;;;21.60;51.69
58662;BME280;44432;49.786;22.760;2023-08-07T09:23:51;98208.09;;;21.64;51.23
58662;BME280;44432;49.786;22.760;2023-08-07T09:26:25;98210.34;;;21.52;50.97
58662;BME280;44432;49.786;22.760;2023-08-07T09:28:55;98211.86;;;21.44;51.42
58662;BME280;44432;49.786;22.760;2023-08-07T09:31:28;98210.69;;;21.45;51.62
58662;BME280;44432;49.786;22.760;2023-08-07T09:34:04;98212.14;;;21.50;51.34
58662;BME280;44432;49.786;22.760;2023-08-07T09:36:35;98220.95;;;21.51;51.33
58662;BME280;44432;49.786;22.760;2023-08-07T09:39:06;98222.80;;;21.48;50.90
58662;BME280;44432;49.786;22.760;2023-08-07T09:41:37;98220.48;;;21.43;51.33
58662;BME280;44432;49.786;22.760;2023-08-07T09:44:09;98224.79;;;21.46;51.43
58662;BME280;44432;49.786;22.760;2023-08-07T09:46:43;98218.65;;;21.45;51.33
58662;BME280;44432;49.786;22.760;2023-08-07T09:49:14;98224.30;;;21.49;50.95
58662;BME280;44432;49.786;22.760;2023-08-07T09:51:46;98224.16;;;21.48;50.82
58662;BME280;44432;49.786;22.760;2023-08-07T09:54:17;98226.94;;;21.47;50.04
58662;BME280;44432;49.786;22.760;2023-08-07T09:56:48;98226.62;;;21.40;50.30
58662;BME280;44432;49.786;22.760;2023-08-07T09:59:19;98221.33;;;21.49;50.73
58662;BME280;44432;49.786;22.760;2023-08-07T10:01:50;98222.29;;;21.68;51.11
58662;BME280;44432;49.786;22.760;2023-08-07T10:04:20;98226.83;;;21.91;50.85
58662;BME280;44432;49.786;22.760;2023-08-07T10:06:52;98228.95;;;22.09;50.34
58662;BME280;44432;49.786;22.760;2023-08-07T10:09:23;98228.04;;;22.24;50.14
58662;BME280;44432;49.786;22.760;2023-08-07T10:11:55;98231.00;;;22.39;49.20
58662;BME280;44432;49.786;22.760;2023-08-07T10:14:27;98230.02;;;22.36;48.59
58662;BME280;44432;49.786;22.760;2023-08-07T10:16:59;98226.67;;;22.47;48.96
58662;BME280;44432;49.786;22.760;2023-08-07T10:19:30;98224.20;;;22.64;48.66
58662;BME280;44432;49.786;22.760;2023-08-07T10:22:00;98225.03;;;22.65;47.69
58662;BME280;44432;49.786;22.760;2023-08-07T10:24:32;98225.51;;;22.67;48.36
58662;BME280;44432;49.786;22.760;2023-08-07T10:27:04;98222.30;;;22.83;48.55
58662;BME280;44432;49.786;22.760;2023-08-07T10:29:36;98229.60;;;23.00;47.66
58662;BME280;44432;49.786;22.760;2023-08-07T10:32:09;98228.14;;;23.02;47.30
58662;BME280;44432;49.786;22.760;2023-08-07T10:34:39;98233.34;;;23.14;47.45
58662;BME280;44432;49.786;22.760;2023-08-07T10:37:09;98233.65;;;23.20;47.16
58662;BME280;44432;49.786;22.760;2023-08-07T10:40:05;98230.66;;;23.26;46.93
58662;BME280;44432;49.786;22.760;2023-08-07T10:45:37;98223.27;;;23.50;46.70
58662;BME280;44432;49.786;22.760;2023-08-07T10:48:10;98226.78;;;23.65;46.94
58662;BME280;44432;49.786;22.760;2023-08-07T10:50:58;98230.69;;;23.84;46.87
58662;BME280;44432;49.786;22.760;2023-08-07T10:53:35;98224.04;;;24.07;46.79
58662;BME280;44432;49.786;22.760;2023-08-07T10:56:09;98226.19;;;24.25;45.38
58662;BME280;44432;49.786;22.760;2023-08-07T10:58:40;98224.15;;;24.16;44.81
58662;BME280;44432;49.786;22.760;2023-08-07T11:01:26;98224.56;;;24.15;45.28
58662;BME280;44432;49.786;22.760;2023-08-07T11:03:59;98225.61;;;24.28;45.58
58662;BME280;44432;49.786;22.760;2023-08-07T11:06:31;98224.07;;;24.38;45.37
58662;BME280;44432;49.786;22.760;2023-08-07T11:09:04;98226.98;;;24.43;45.15
58662;BME280;44432;49.786;22.760;2023-08-07T11:11:38;98228.38;;;24.52;45.20
58662;BME280;44432;49.786;22.760;2023-08-07T11:14:10;98234.40;;;24.69;45.30
58662;BME280;44432;49.786;22.760;2023-08-07T11:16:41;98236.86;;;24.82;44.29
58662;BME280;44432;49.786;22.760;2023-08-07T11:19:13;98236.58;;;24.82;43.62
58662;BME280;44432;49.786;22.760;2023-08-07T11:21:44;98236.27;;;24.71;43.43
58662;BME280;44432;49.786;22.760;2023-08-07T11:24:15;98236.66;;;24.53;43.53
58662;BME280;44432;49.786;22.760;2023-08-07T11:26:48;98229.80;;;24.30;43.78
58662;BME280;44432;49.786;22.760;2023-08-07T11:29:20;98230.73;;;24.34;44.17
58662;BME280;44432;49.786;22.760;2023-08-07T11:31:53;98230.20;;;24.41;44.37
58662;BME280;44432;49.786;22.760;2023-08-07T11:34:24;98233.91;;;24.47;44.18
58662;BME280;44432;49.786;22.760;2023-08-07T11:36:54;98230.06;;;24.47;44.48
58662;BME280;44432;49.786;22.760;2023-08-07T11:39:27;98232.71;;;24.44;44.15
58662;BME280;44432;49.786;22.760;2023-08-07T11:41:57;98236.38;;;24.25;44.39
58662;BME280;44432;49.786;22.760;2023-08-07T11:44:28;98233.51;;;24.11;45.02
58662;BME280;44432;49.786;22.760;2023-08-07T11:47:03;98240.94;;;23.98;45.42
58662;BME280;44432;49.786;22.760;2023-08-07T11:49:34;98252.99;;;23.83;45.89
58662;BME280;44432;49.786;22.760;2023-08-07T11:52:06;98269.23;;;23.53;47.00
58662;BME280;44432;49.786;22.760;2023-08-07T11:54:37;98277.23;;;23.23;49.17
58662;BME280;44432;49.786;22.760;2023-08-07T11:57:17;98277.96;;;22.93;50.89
58662;BME280;44432;49.786;22.760;2023-08-07T11:59:54;98282.05;;;22.53;52.35
58662;BME280;44432;49.786;22.760;2023-08-07T12:02:26;98283.29;;;22.06;53.59
58662;BME280;44432;49.786;22.760;2023-08-07T12:05:00;98282.79;;;21.71;54.90
58662;BME280;44432;49.786;22.760;2023-08-07T12:07:31;98288.52;;;21.37;55.87
58662;BME280;44432;49.786;22.760;2023-08-07T12:10:03;98289.85;;;21.05;56.84
58662;BME280;44432;49.786;22.760;2023-08-07T12:12:35;98293.00;;;20.78;57.96
58662;BME280;44432;49.786;22.760;2023-08-07T12:15:08;98301.59;;;20.49;58.84
58662;BME280;44432;49.786;22.760;2023-08-07T12:17:39;98308.27;;;20.20;59.61
58662;BME280;44432;49.786;22.760;2023-08-07T12:20:10;98307.91;;;19.94;59.94
58662;BME280;44432;49.786;22.760;2023-08-07T12:22:41;98301.41;;;19.62;60.48
58662;BME280;44432;49.786;22.760;2023-08-07T12:25:13;98306.20;;;19.37;61.24
58662;BME280;44432;49.786;22.760;2023-08-07T12:27:43;98306.33;;;19.19;62.03
58662;BME280;44432;49.786;22.760;2023-08-07T12:30:17;98304.23;;;19.09;62.56
58662;BME280;44432;49.786;22.760;2023-08-07T12:32:47;98308.35;;;19.06;63.12
58662;BME280;44432;49.786;22.760;2023-08-07T12:35:18;98310.77;;;19.08;63.77
58662;BME280;44432;49.786;22.760;2023-08-07T12:37:48;98313.45;;;19.14;64.41
58662;BME280;44432;49.786;22.760;2023-08-07T12:40:19;98310.34;;;19.19;64.30
58662;BME280;44432;49.786;22.760;2023-08-07T12:42:50;98307.25;;;19.22;64.43
58662;BME280;44432;49.786;22.760;2023-08-07T12:45:22;98308.70;;;19.28;64.67
58662;BME280;44432;49.786;22.760;2023-08-07T12:47:52;98306.05;;;19.37;64.90
58662;BME280;44432;49.786;22.760;2023-08-07T12:50:23;98296.11;;;19.48;65.02
58662;BME280;44432;49.786;22.760;2023-08-07T12:52:54;98300.33;;;19.63;64.85
58662;BME280;44432;49.786;22.760;2023-08-07T12:55:25;98307.58;;;19.78;64.81
58662;BME280;44432;49.786;22.760;2023-08-07T12:57:57;98309.11;;;19.96;64.52
58662;BME280;44432;49.786;22.760;2023-08-07T13:00:28;98315.68;;;20.11;64.54
58662;BME280;44432;49.786;22.760;2023-08-07T13:02:59;98317.08;;;20.12;63.95
58662;BME280;44432;49.786;22.760;2023-08-07T13:05:30;98315.27;;;20.08;64.38
58662;BME280;44432;49.786;22.760;2023-08-07T13:08:01;98324.17;;;20.04;64.34
58662;BME280;44432;49.786;22.760;2023-08-07T13:10:32;98327.91;;;19.91;64.33
58662;BME280;44432;49.786;22.760;2023-08-07T13:13:02;98337.11;;;19.80;64.94
58662;BME280;44432;49.786;22.760;2023-08-07T13:15:34;98345.24;;;19.70;64.94